Time;durP1;ratioP1;P1;durP2;ratioP2;P2;SDS_P1;SDS_P2;PMS_P1;PMS_P2;Temp;Humidity;BMP_temperature;BMP_pressure;BME280_temperature;BME280_humidity;BME280_pressure;Samples;Min_cycle;Max_cycle;Signal;HPM_P1;HPM_P2
2022/04/08 00:01:34;;;;;;;14.73;3.05;;;;;;;4.87;85.57;99630.44;4976802;28;20081;-78
2022/04/08 00:03:59;;;;;;;13.13;2.80;;;;;;;4.92;85.03;99630.91;4987938;28;20038;-79
2022/04/08 00:06:24;;;;;;;16.00;3.00;;;;;;;4.91;85.03;99642.13;4995115;28;20174;-79
2022/04/08 00:08:50;;;;;;;16.08;2.97;;;;;;;4.91;84.71;99648.06;5007504;28;20482;-78
2022/04/08 00:11:16;;;;;;;16.35;2.97;;;;;;;4.91;84.21;99652.41;5008129;28;20026;-79
2022/04/08 00:13:42;;;;;;;14.02;2.85;;;;;;;4.85;84.68;99647.72;5007737;28;20093;-77
2022/04/08 00:16:08;;;;;;;14.95;2.70;;;;;;;4.88;84.67;99652.66;4994677;28;20487;-79
2022/04/08 00:18:34;;;;;;;15.32;2.63;;;;;;;4.83;84.17;99649.59;5002236;28;20032;-78
2022/04/08 00:21:00;;;;;;;15.20;3.00;;;;;;;4.84;83.98;99671.78;4990136;28;20045;-78
2022/04/08 00:23:25;;;;;;;14.60;2.88;;;;;;;4.82;83.87;99658.22;4988356;28;20039;-78
2022/04/08 00:25:51;;;;;;;15.00;3.03;;;;;;;4.83;83.82;99670.97;4980536;28;20226;-80
2022/04/08 00:28:16;;;;;;;14.15;3.30;;;;;;;4.84;83.25;99679.50;4977265;28;20088;-79
2022/04/08 00:30:42;;;;;;;13.80;2.72;;;;;;;4.78;82.99;99694.44;4987819;28;20045;-78
2022/04/08 00:33:07;;;;;;;16.13;3.20;;;;;;;4.78;83.56;99693.63;4970084;28;20382;-78
2022/04/08 00:35:32;;;;;;;16.42;2.90;;;;;;;4.77;83.19;99685.09;4995898;28;20486;-79
2022/04/08 00:37:58;;;;;;;14.90;3.10;;;;;;;4.75;82.13;99689.50;4989724;28;20486;-78
2022/04/08 00:40:24;;;;;;;14.63;2.92;;;;;;;4.72;82.79;99689.75;4988006;28;20038;-78
2022/04/08 00:42:49;;;;;;;16.88;3.03;;;;;;;4.74;82.89;99702.47;4987906;28;20029;-78
2022/04/08 00:45:15;;;;;;;14.35;3.13;;;;;;;4.70;82.55;99701.91;4992744;28;20610;-78
2022/04/08 00:47:41;;;;;;;16.15;3.83;;;;;;;4.72;82.92;99709.50;5007300;28;20038;-79
2022/04/08 00:50:09;;;;;;;17.20;3.00;;;;;;;4.66;82.39;99710.78;4988668;28;20096;-79
2022/04/08 00:52:35;;;;;;;16.13;3.37;;;;;;;4.59;82.22;99703.63;5006603;28;20045;-79
2022/04/08 00:55:06;;;;;;;17.65;3.33;;;;;;;4.61;82.26;99707.72;5003983;28;20022;-79
2022/04/08 00:57:32;;;;;;;17.15;3.28;;;;;;;4.62;82.00;99735.03;4988203;28;20135;-79
2022/04/08 01:00:01;;;;;;;15.07;3.20;;;;;;;4.59;80.96;99735.28;4988075;28;20117;-78
2022/04/08 01:02:27;;;;;;;;;;;;;;;4.70;81.96;99740.44;5003768;28;20044;-79
2022/04/08 01:04:53;;;;;;;17.40;3.17;;;;;;;4.58;80.73;99733.63;5002139;28;20302;-78
2022/04/08 01:07:18;;;;;;;18.08;3.20;;;;;;;4.59;81.25;99750.69;4996736;28;20026;-78
2022/04/08 01:09:44;;;;;;;17.83;3.65;;;;;;;4.50;81.16;99747.03;4987100;28;20509;-79
2022/04/08 01:12:09;;;;;;;18.92;3.63;;;;;;;4.42;81.79;99738.28;4969702;28;20034;-78
2022/04/08 01:14:55;;;;;;;16.00;3.00;;;;;;;4.52;81.82;99759.75;4969883;28;20029;-78
2022/04/08 01:17:20;;;;;;;15.38;3.35;;;;;;;4.43;81.81;99750.19;4982055;28;20440;-78
2022/04/08 01:19:46;;;;;;;14.25;3.03;;;;;;;4.48;81.98;99766.06;5006965;28;20064;-78
2022/04/08 01:22:11;;;;;;;13.32;2.63;;;;;;;4.48;82.03;99778.91;4984892;28;20421;-79
2022/04/08 01:24:40;;;;;;;18.98;3.40;;;;;;;4.35;81.95;99762.72;4987454;28;20030;-78
2022/04/08 01:27:05;;;;;;;13.75;2.78;;;;;;;4.38;82.01;99777.94;4997455;28;20477;-79
2022/04/08 01:29:31;;;;;;;16.13;3.05;;;;;;;4.39;82.42;99770.09;4976063;28;20035;-78
2022/04/08 01:31:56;;;;;;;16.77;3.05;;;;;;;4.37;82.47;99771.16;4991656;28;20034;-79
2022/04/08 01:34:21;;;;;;;17.65;3.22;;;;;;;4.39;82.25;99784.69;4991600;28;20026;-79
2022/04/08 01:36:47;;;;;;;16.40;3.38;;;;;;;4.37;82.37;99794.25;4992647;28;20030;-78
2022/04/08 01:39:12;;;;;;;15.15;3.15;;;;;;;4.37;82.54;99789.94;4999159;28;20061;-79
2022/04/08 01:41:38;;;;;;;18.45;3.22;;;;;;;4.20;82.80;99770.63;4998999;28;20061;-78
2022/04/08 01:44:03;;;;;;;17.35;3.20;;;;;;;4.30;82.67;99780.22;5010489;28;20056;-78
2022/04/08 01:46:29;;;;;;;14.82;2.92;;;;;;;4.28;82.38;99802.63;5006382;28;20096;-79
2022/04/08 01:48:54;;;;;;;15.90;3.10;;;;;;;4.22;82.64;99794.41;4973541;28;20044;-78
2022/04/08 01:51:26;;;;;;;14.40;2.42;;;;;;;4.24;82.28;99795.16;4990991;28;20030;-79
2022/04/08 01:53:51;;;;;;;14.07;2.75;;;;;;;4.19;81.58;99798.97;4992340;28;20026;-80
2022/04/08 01:56:17;;;;;;;11.18;2.10;;;;;;;4.09;81.07;99793.66;5007919;28;20026;-79
2022/04/08 01:58:42;;;;;;;13.80;2.22;;;;;;;4.06;81.57;99788.75;4993469;28;20030;-79
2022/04/08 02:01:08;;;;;;;14.68;2.42;;;;;;;4.03;81.52;99798.41;5010181;28;20426;-79
2022/04/08 02:03:33;;;;;;;10.40;2.33;;;;;;;4.07;81.34;99805.81;5010003;28;20038;-79
2022/04/08 02:05:59;;;;;;;11.82;2.10;;;;;;;4.04;81.31;99806.00;4991071;28;20553;-79
2022/04/08 02:08:24;;;;;;;11.75;2.42;;;;;;;3.93;81.14;99793.13;4990980;28;20394;-78
2022/04/08 02:10:50;;;;;;;12.93;2.25;;;;;;;3.92;81.59;99796.59;5006371;28;20030;-79
2022/04/08 02:13:16;;;;;;;9.48;2.30;;;;;;;3.96;81.68;99801.41;4973269;28;20158;-78
2022/04/08 02:15:41;;;;;;;11.52;2.50;;;;;;;3.94;81.64;99800.69;5006141;28;20108;-79
2022/04/08 02:18:07;;;;;;;12.30;2.20;;;;;;;3.81;81.62;99789.66;4992543;28;20037;-79
2022/04/08 02:20:33;;;;;;;12.07;2.42;;;;;;;3.87;81.95;99793.53;5009994;28;20064;-78
2022/04/08 02:22:59;;;;;;;14.00;2.50;;;;;;;3.91;81.54;99805.22;5009954;28;20034;-79
2022/04/08 02:25:27;;;;;;;11.38;2.47;;;;;;;3.94;81.47;99805.00;4996226;28;20114;-78
2022/04/08 02:27:53;;;;;;;12.82;2.65;;;;;;;3.86;82.21;99807.31;4993585;28;20437;-79
2022/04/08 02:30:18;;;;;;;13.75;2.42;;;;;;;3.88;81.92;99810.56;5002913;28;20471;-78
2022/04/08 02:32:44;;;;;;;11.13;2.30;;;;;;;3.77;82.40;99797.66;4991124;28;20401;-79
2022/04/08 02:35:09;;;;;;;11.55;2.17;;;;;;;3.85;82.43;99811.63;4983370;28;20370;-78
2022/04/08 02:37:35;;;;;;;14.60;2.53;;;;;;;3.81;82.42;99806.81;5005738;28;20026;-78
2022/04/08 02:40:00;;;;;;;14.63;2.53;;;;;;;3.78;83.12;99809.56;4990343;28;20026;-78
2022/04/08 02:42:30;;;;;;;11.55;2.42;;;;;;;3.70;82.84;99808.34;4993551;28;20076;-79
2022/04/08 02:44:55;;;;;;;11.70;2.60;;;;;;;3.75;83.39;99809.78;4999666;28;20041;-78
2022/04/08 02:47:21;;;;;;;10.15;2.40;;;;;;;3.73;83.17;99813.28;4991332;28;20054;-79
2022/04/08 02:49:46;;;;;;;13.10;2.35;;;;;;;3.69;83.51;99801.59;5009955;28;20030;-79
2022/04/08 02:52:11;;;;;;;12.10;2.45;;;;;;;3.71;83.13;99810.00;5009354;28;20378;-79
2022/04/08 02:54:37;;;;;;;11.75;2.30;;;;;;;3.78;83.33;99819.81;5002817;28;20018;-78
2022/04/08 02:57:02;;;;;;;16.30;2.60;;;;;;;3.70;83.41;99828.88;4989732;28;20031;-79
2022/04/08 02:59:27;;;;;;;12.27;2.63;;;;;;;3.66;83.99;99822.31;5002277;28;20056;-78
2022/04/08 03:01:53;;;;;;;11.55;2.33;;;;;;;3.71;83.81;99838.19;4991276;28;20022;-79
2022/04/08 03:04:18;;;;;;;14.80;2.88;;;;;;;3.70;83.50;99828.88;5004893;28;20070;-78
2022/04/08 03:06:43;;;;;;;13.88;2.28;;;;;;;3.71;83.56;99834.81;5001974;28;20020;-78
2022/04/08 03:09:09;;;;;;;12.50;3.08;;;;;;;3.77;83.59;99844.66;5009144;28;20033;-79
2022/04/08 03:11:34;;;;;;;10.20;2.45;;;;;;;3.71;83.71;99840.75;4976133;28;20036;-80
2022/04/08 03:14:02;;;;;;;12.10;2.20;;;;;;;3.72;83.74;99857.78;4972781;28;20039;-78
2022/04/08 03:16:27;;;;;;;10.23;2.30;;;;;;;3.73;83.38;99854.31;4989894;28;20034;-79
2022/04/08 03:18:53;;;;;;;10.48;2.17;;;;;;;3.80;83.95;99864.97;4989637;28;20041;-79
2022/04/08 03:21:18;;;;;;;10.80;2.30;;;;;;;3.85;83.58;99862.09;4989448;28;20097;-79
2022/04/08 03:23:44;;;;;;;9.63;1.90;;;;;;;3.85;83.97;99856.97;4989458;28;20064;-79
2022/04/08 03:26:10;;;;;;;12.27;2.60;;;;;;;3.78;84.10;99868.56;5007352;28;20034;-78
2022/04/08 03:28:35;;;;;;;13.20;2.80;;;;;;;3.78;83.57;99853.16;4993374;28;20019;-79
2022/04/08 03:31:01;;;;;;;15.82;2.88;;;;;;;3.77;84.01;99874.59;4989796;28;20034;-79
2022/04/08 03:33:27;;;;;;;11.98;2.20;;;;;;;3.75;84.25;99874.72;5008376;28;20029;-79
2022/04/08 03:35:52;;;;;;;12.43;2.67;;;;;;;3.82;84.11;99883.63;4992875;28;20045;-79
2022/04/08 03:38:17;;;;;;;13.48;2.88;;;;;;;3.79;83.40;99888.16;5000588;28;20034;-80
2022/04/08 03:40:43;;;;;;;9.82;2.22;;;;;;;3.75;83.04;99881.59;5008807;28;20029;-79
2022/04/08 03:43:08;;;;;;;17.23;3.22;;;;;;;3.65;83.17;99871.97;4991441;28;20569;-80
2022/04/08 03:45:33;;;;;;;12.40;2.58;;;;;;;3.59;83.79;99872.38;4984455;28;20422;-79
2022/04/08 03:47:59;;;;;;;13.18;2.78;;;;;;;3.60;83.58;99889.41;4970977;28;20042;-79
2022/04/08 03:50:24;;;;;;;11.30;2.80;;;;;;;3.52;84.07;99881.41;4988771;28;20541;-79
2022/04/08 03:52:49;;;;;;;13.05;2.70;;;;;;;3.56;83.65;99887.97;4991476;28;20038;-79
2022/04/08 03:55:16;;;;;;;9.82;2.47;;;;;;;3.53;84.48;99890.75;4986736;28;20443;-79
2022/04/08 03:57:42;;;;;;;12.18;2.92;;;;;;;3.43;84.61;99882.00;4990020;28;20061;-79
2022/04/08 04:00:08;;;;;;;10.77;2.83;;;;;;;3.34;84.22;99890.34;4991422;28;20060;-79
2022/04/08 04:02:35;;;;;;;10.43;3.15;;;;;;;3.39;84.52;99894.22;4986555;28;20079;-79
2022/04/08 04:05:01;;;;;;;12.35;3.05;;;;;;;3.32;84.09;99892.16;4973315;28;20150;-79
2022/04/08 04:07:27;;;;;;;11.68;2.58;;;;;;;3.29;84.11;99887.25;4972244;28;20785;-79
2022/04/08 04:09:53;;;;;;;9.82;2.58;;;;;;;3.17;84.42;99882.03;4990222;28;20027;-80
2022/04/08 04:12:18;;;;;;;11.85;2.55;;;;;;;3.16;84.53;99875.25;4993488;28;20450;-79
2022/04/08 04:14:44;;;;;;;10.95;2.53;;;;;;;3.08;84.09;99874.94;4973389;28;20026;-79
2022/04/08 04:17:09;;;;;;;11.88;2.70;;;;;;;3.13;84.53;99882.31;4989819;28;20118;-79
2022/04/08 04:19:35;;;;;;;10.75;2.28;;;;;;;3.11;84.38;99882.44;4992580;28;20445;-80
2022/04/08 04:22:00;;;;;;;13.23;2.72;;;;;;;3.05;84.04;99882.00;4990243;28;20431;-79
2022/04/08 04:24:32;;;;;;;10.35;2.45;;;;;;;3.01;84.48;99876.25;4974975;28;20034;-80
2022/04/08 04:27:00;;;;;;;10.05;2.60;;;;;;;2.98;84.51;99876.44;4974203;28;20109;-79
2022/04/08 04:29:25;;;;;;;8.98;2.47;;;;;;;2.93;84.09;99868.25;4991114;28;20495;-78
2022/04/08 04:31:55;;;;;;;10.60;2.75;;;;;;;2.89;84.59;99871.94;5001901;28;20061;-78
2022/04/08 04:34:21;;;;;;;11.98;2.83;;;;;;;2.90;84.49;99864.16;5010501;28;20496;-79
2022/04/08 04:36:46;;;;;;;9.15;2.45;;;;;;;2.89;84.03;99871.94;5011336;28;20064;-79
2022/04/08 04:39:12;;;;;;;12.88;2.85;;;;;;;2.83;84.76;99872.34;4992759;28;20113;-79
2022/04/08 04:41:37;;;;;;;12.52;3.15;;;;;;;2.74;84.64;99873.72;4999560;28;20018;-79
2022/04/08 04:44:03;;;;;;;11.23;2.58;;;;;;;2.77;84.33;99872.72;4991361;28;20041;-79
2022/04/08 04:46:28;;;;;;;11.15;2.88;;;;;;;2.76;84.76;99886.47;5006729;28;20085;-79
2022/04/08 04:48:54;;;;;;;10.13;2.88;;;;;;;2.77;84.54;99888.09;4972645;28;20049;-79
2022/04/08 04:51:19;;;;;;;14.98;3.00;;;;;;;2.69;84.52;99882.63;4975986;28;20034;-78
2022/04/08 04:53:45;;;;;;;10.68;2.90;;;;;;;2.56;84.43;99883.41;4990396;28;20049;-79
2022/04/08 04:56:10;;;;;;;11.70;3.13;;;;;;;2.62;84.29;99889.88;4971635;28;20037;-78
2022/04/08 04:58:35;;;;;;;11.80;2.65;;;;;;;2.60;84.25;99887.44;4975554;28;20022;-79
2022/04/08 05:01:01;;;;;;;12.10;2.80;;;;;;;2.44;84.60;99861.16;4996702;28;20090;-80
2022/04/08 05:03:26;;;;;;;10.05;2.92;;;;;;;2.42;84.70;99872.44;4972267;28;20026;-79
2022/04/08 05:05:53;;;;;;;14.05;2.67;;;;;;;2.59;85.01;99890.91;4987958;28;20434;-79
2022/04/08 05:08:18;;;;;;;13.45;3.10;;;;;;;2.45;85.05;99873.03;4987753;28;20023;-79
2022/04/08 05:10:44;;;;;;;10.65;3.00;;;;;;;2.39;84.89;99870.88;4988030;28;20046;-78
2022/04/08 05:13:09;;;;;;;12.32;3.00;;;;;;;2.44;84.72;99881.63;5006093;28;20108;-79
2022/04/08 05:15:38;;;;;;;10.27;2.95;;;;;;;2.47;84.96;99884.00;4999556;28;20080;-79
2022/04/08 05:18:04;;;;;;;12.25;3.28;;;;;;;2.49;84.63;99887.28;4997595;28;20029;-79
2022/04/08 05:20:30;;;;;;;11.52;3.00;;;;;;;2.42;85.20;99882.66;5007379;28;20446;-80
2022/04/08 05:22:55;;;;;;;9.40;3.08;;;;;;;2.35;85.11;99877.09;4989895;28;20027;-79
2022/04/08 05:25:20;;;;;;;8.75;2.65;;;;;;;2.43;85.09;99892.78;4987351;28;20080;-79
2022/04/08 05:27:46;;;;;;;11.57;3.13;;;;;;;2.37;85.01;99875.25;4985114;28;20026;-79
2022/04/08 05:30:15;;;;;;;11.98;3.40;;;;;;;2.39;85.54;99883.66;4987011;28;20046;-79
2022/04/08 05:32:41;;;;;;;10.20;3.25;;;;;;;2.35;85.13;99877.09;5003055;28;20022;-79
2022/04/08 05:35:06;;;;;;;14.13;3.15;;;;;;;2.33;85.41;99879.75;5005793;28;20367;-79
2022/04/08 05:37:37;;;;;;;11.63;3.40;;;;;;;2.34;85.83;99875.44;4985815;28;20934;-79
2022/04/08 05:40:03;;;;;;;10.18;3.40;;;;;;;2.36;85.65;99878.75;4986383;28;20034;-79
2022/04/08 05:42:28;;;;;;;12.27;3.10;;;;;;;2.28;85.71;99855.38;5000093;28;20045;-79
2022/04/08 05:44:54;;;;;;;11.65;3.70;;;;;;;2.41;85.94;99871.59;4971507;28;20157;-78
2022/04/08 05:47:19;;;;;;;10.75;3.38;;;;;;;2.47;85.80;99871.22;4991670;28;20128;-79
2022/04/08 05:49:44;;;;;;;12.00;3.22;;;;;;;2.50;85.77;99881.25;4988022;28;20044;-79
2022/04/08 05:52:10;;;;;;;10.40;2.90;;;;;;;2.57;86.29;99868.88;4995074;28;20379;-79
2022/04/08 05:54:35;;;;;;;14.93;3.13;;;;;;;2.59;86.01;99865.31;4985703;28;20046;-78
2022/04/08 05:57:01;;;;;;;9.68;3.03;;;;;;;2.64;86.10;99858.16;4986344;28;20026;-79
2022/04/08 05:59:29;;;;;;;9.13;2.80;;;;;;;2.69;85.87;99862.16;4987962;28;20073;-79
2022/04/08 06:01:55;;;;;;;12.30;3.60;;;;;;;2.66;86.09;99851.19;4997091;28;20093;-79
2022/04/08 06:04:23;;;;;;;10.40;3.33;;;;;;;2.72;86.46;99849.16;4986900;28;20074;-79
2022/04/08 06:06:50;;;;;;;11.40;3.25;;;;;;;2.76;86.66;99850.63;4969178;28;20026;-79
2022/04/08 06:09:15;;;;;;;14.02;3.78;;;;;;;2.76;86.18;99840.38;5001413;28;20030;-79
2022/04/08 06:11:42;;;;;;;9.88;3.45;;;;;;;2.76;86.73;99840.38;4997241;28;20042;-79
2022/04/08 06:14:08;;;;;;;10.85;3.42;;;;;;;2.79;86.49;99837.59;4987976;28;20041;-78
2022/04/08 06:16:33;;;;;;;10.65;3.45;;;;;;;2.90;86.73;99848.78;5007757;28;20026;-78
2022/04/08 06:18:58;;;;;;;11.93;3.90;;;;;;;3.00;86.63;99861.81;5002213;28;20494;-79
2022/04/08 06:21:24;;;;;;;7.85;3.22;;;;;;;3.03;86.10;99853.91;4992989;28;20582;-79
2022/04/08 06:23:50;;;;;;;11.32;4.15;;;;;;;3.02;86.57;99847.16;4990341;28;20033;-78
2022/04/08 06:26:15;;;;;;;9.55;4.15;;;;;;;3.06;86.53;99845.22;4989839;28;20041;-78
2022/04/08 06:28:41;;;;;;;10.73;3.30;;;;;;;3.17;86.56;99858.97;5004235;28;20033;-80
2022/04/08 06:31:07;;;;;;;10.70;3.90;;;;;;;3.15;86.94;99855.69;4995974;28;20037;-78
2022/04/08 06:33:32;;;;;;;10.20;4.28;;;;;;;3.22;86.83;99857.84;4989938;28;20033;-78
2022/04/08 06:35:59;;;;;;;8.88;3.55;;;;;;;3.28;86.50;99867.69;4990080;28;20022;-78
2022/04/08 06:38:25;;;;;;;11.40;4.00;;;;;;;3.30;86.23;99855.56;5008534;28;20029;-80
2022/04/08 06:40:50;;;;;;;11.88;3.78;;;;;;;3.42;86.27;99870.13;5009091;28;20391;-78
2022/04/08 06:43:15;;;;;;;12.05;3.78;;;;;;;3.45;85.99;99857.13;4990095;28;20035;-78
2022/04/08 06:45:41;;;;;;;10.10;3.60;;;;;;;3.47;86.01;99855.25;4989769;28;20054;-79
2022/04/08 06:48:06;;;;;;;11.70;4.00;;;;;;;3.57;86.10;99858.84;4990501;28;20113;-79
2022/04/08 06:50:33;;;;;;;11.40;3.85;;;;;;;3.61;86.29;99850.03;4990485;28;20030;-80
2022/04/08 06:53:01;;;;;;;9.18;3.90;;;;;;;3.61;86.52;99834.66;4992539;28;20034;-79
2022/04/08 06:55:28;;;;;;;9.03;3.50;;;;;;;3.68;86.02;99841.00;4990066;28;20149;-79
2022/04/08 06:57:53;;;;;;;10.23;3.78;;;;;;;3.77;85.44;99841.28;4971311;28;20289;-79
2022/04/08 07:00:18;;;;;;;10.02;3.75;;;;;;;3.86;85.98;99843.22;5001005;28;20029;-79
2022/04/08 07:02:44;;;;;;;8.98;3.40;;;;;;;3.91;85.51;99846.28;4991925;28;20748;-79
2022/04/08 07:05:10;;;;;;;9.73;3.40;;;;;;;4.01;85.36;99847.25;4989053;28;20038;-79
2022/04/08 07:07:36;;;;;;;10.27;3.75;;;;;;;4.02;85.21;99837.84;4988454;28;20057;-79
2022/04/08 07:10:03;;;;;;;10.90;3.65;;;;;;;4.09;85.11;99847.56;4990131;28;20486;-79
2022/04/08 07:12:29;;;;;;;10.52;3.55;;;;;;;4.18;85.03;99854.59;4971148;28;20049;-79
2022/04/08 07:14:55;;;;;;;8.73;3.65;;;;;;;4.18;85.17;99844.31;4972312;28;20471;-79
2022/04/08 07:17:31;;;;;;;9.27;3.42;;;;;;;4.30;84.58;99858.06;5003170;28;20048;-79
2022/04/08 07:19:57;;;;;;;9.43;3.28;;;;;;;4.36;84.45;99854.22;4990981;28;20117;-79
2022/04/08 07:22:23;;;;;;;8.90;3.30;;;;;;;4.39;83.88;99854.00;4990453;28;20124;-79
2022/04/08 07:24:49;;;;;;;7.85;3.40;;;;;;;4.39;83.99;99841.16;4977108;28;20030;-79
2022/04/08 07:27:15;;;;;;;10.48;3.58;;;;;;;4.48;83.87;99850.78;4991877;28;20121;-79
2022/04/08 07:29:41;;;;;;;9.75;3.67;;;;;;;4.50;83.37;99848.91;4974549;28;20874;-79
2022/04/08 07:32:06;;;;;;;10.10;3.40;;;;;;;4.51;83.98;99845.41;4971707;28;20152;-80
2022/04/08 07:34:32;;;;;;;9.73;3.20;;;;;;;4.59;82.91;99848.28;5008195;28;20470;-79
2022/04/08 07:36:57;;;;;;;10.10;3.55;;;;;;;4.66;83.02;99846.88;4995574;28;20034;-79
2022/04/08 07:39:22;;;;;;;8.45;3.50;;;;;;;4.65;82.91;99845.25;5006046;28;20120;-80
2022/04/08 07:41:47;;;;;;;8.52;3.63;;;;;;;4.67;83.31;99851.09;5003240;28;20026;-79
2022/04/08 07:44:13;;;;;;;8.38;3.50;;;;;;;4.78;83.40;99853.69;4971355;28;20658;-79
2022/04/08 07:46:38;;;;;;;8.48;3.60;;;;;;;4.78;83.28;99847.75;4998972;28;20484;-79
2022/04/08 07:49:04;;;;;;;9.20;3.60;;;;;;;4.76;82.85;99835.03;4989716;28;20130;-80
2022/04/08 07:51:29;;;;;;;8.77;3.65;;;;;;;4.84;81.97;99838.78;4988659;28;20474;-79
2022/04/08 07:53:54;;;;;;;10.20;3.95;;;;;;;4.82;82.54;99838.03;5008550;28;20025;-80
2022/04/08 07:56:19;;;;;;;10.07;3.90;;;;;;;4.84;82.71;99837.00;5000354;28;20022;-80
2022/04/08 07:58:47;;;;;;;9.82;4.10;;;;;;;4.95;82.76;99844.75;4971961;28;20022;-80
2022/04/08 08:01:13;;;;;;;11.00;4.70;;;;;;;4.99;82.25;99840.22;4987520;28;20077;-79
2022/04/08 08:03:38;;;;;;;7.35;4.00;;;;;;;5.00;82.06;99842.66;4988438;28;20510;-80
2022/04/08 08:06:04;;;;;;;7.93;3.80;;;;;;;5.06;82.32;99831.13;4990142;28;20038;-79
2022/04/08 08:08:29;;;;;;;8.52;4.07;;;;;;;5.05;82.31;99830.31;4987755;28;20033;-79
2022/04/08 08:10:55;;;;;;;9.10;4.28;;;;;;;5.16;82.06;99832.06;4970690;28;20093;-79
2022/04/08 08:13:21;;;;;;;9.45;4.43;;;;;;;5.21;81.73;99834.28;4991139;28;20414;-79
2022/04/08 08:15:47;;;;;;;7.85;4.82;;;;;;;5.21;81.61;99829.94;5007535;28;20030;-79
2022/04/08 08:18:12;;;;;;;10.48;4.38;;;;;;;5.19;80.86;99824.13;4999498;28;20026;-79
2022/04/08 08:20:38;;;;;;;11.38;4.47;;;;;;;5.30;80.89;99834.41;4987503;28;20034;-79
2022/04/08 08:23:06;;;;;;;9.48;4.65;;;;;;;5.28;81.49;99825.19;4987609;28;20034;-79
2022/04/08 08:25:32;;;;;;;10.15;4.20;;;;;;;5.38;81.27;99827.84;4988458;28;20355;-79
2022/04/08 08:27:59;;;;;;;10.15;4.18;;;;;;;5.45;80.01;99829.03;4988601;28;20512;-79
2022/04/08 08:30:27;;;;;;;10.25;4.20;;;;;;;5.47;79.78;99824.59;4989697;28;20025;-81
2022/04/08 08:32:52;;;;;;;9.85;4.38;;;;;;;5.46;79.44;99828.94;4987631;28;20037;-79
2022/04/08 08:35:19;;;;;;;9.07;3.92;;;;;;;5.50;78.72;99824.34;4988960;28;20018;-79
2022/04/08 08:37:45;;;;;;;9.43;4.18;;;;;;;5.49;80.06;99812.44;4966576;28;20671;-79
2022/04/08 08:40:12;;;;;;;8.98;4.20;;;;;;;5.56;78.84;99818.75;5005046;28;20053;-79
2022/04/08 08:42:39;;;;;;;11.25;5.05;;;;;;;5.58;78.64;99806.59;4970561;28;20038;-79
2022/04/08 08:45:06;;;;;;;10.45;4.90;;;;;;;5.58;79.73;99793.75;4996795;28;20137;-79
2022/04/08 08:47:32;;;;;;;10.18;5.22;;;;;;;5.71;79.99;99802.13;4987603;28;20058;-79
2022/04/08 08:49:58;;;;;;;9.40;4.03;;;;;;;5.66;78.00;99803.41;4992520;28;20033;-79
2022/04/08 08:52:24;;;;;;;9.63;4.50;;;;;;;5.69;78.45;99793.72;4989530;28;20034;-79
2022/04/08 08:54:50;;;;;;;8.23;4.15;;;;;;;5.80;78.67;99791.13;4999929;28;20026;-79
2022/04/08 08:57:16;;;;;;;11.88;4.60;;;;;;;5.83;77.69;99790.06;4989586;28;20030;-79
2022/04/08 08:59:44;;;;;;;8.65;4.25;;;;;;;5.84;77.23;99792.50;5003286;28;20053;-79
2022/04/08 09:02:10;;;;;;;13.00;4.57;;;;;;;5.86;76.82;99790.66;4996346;28;20030;-79
2022/04/08 09:04:42;;;;;;;9.88;4.30;;;;;;;5.82;76.59;99781.53;4973283;28;20169;-79
2022/04/08 09:07:20;;;;;;;11.63;4.40;;;;;;;5.88;77.33;99782.00;4971138;28;20030;-79
2022/04/08 09:09:51;;;;;;;9.15;3.95;;;;;;;5.99;77.29;99782.00;4988200;28;20038;-79
2022/04/08 09:12:17;;;;;;;12.82;4.65;;;;;;;6.00;77.13;99774.13;5005228;28;20038;-79
2022/04/08 09:14:50;;;;;;;8.32;4.00;;;;;;;6.06;76.91;99773.66;5006417;28;20358;-79
2022/04/08 09:17:21;;;;;;;9.82;3.95;;;;;;;6.19;77.97;99786.34;5005706;28;20036;-79
2022/04/08 09:19:53;;;;;;;9.05;4.13;;;;;;;6.25;77.25;99770.44;5007384;28;20022;-79
2022/04/08 09:22:20;;;;;;;11.65;4.20;;;;;;;6.29;76.83;99774.38;4996224;28;20026;-79
2022/04/08 09:24:46;;;;;;;8.93;3.67;;;;;;;6.32;75.95;99776.72;4996003;28;20111;-79
2022/04/08 09:27:12;;;;;;;9.38;3.67;;;;;;;6.36;75.75;99772.94;5007034;28;20061;-79
2022/04/08 09:29:42;;;;;;;9.10;3.78;;;;;;;6.38;76.02;99776.22;4981648;28;20145;-80
2022/04/08 09:32:09;;;;;;;10.40;3.63;;;;;;;6.45;75.90;99766.25;4989413;28;20034;-79
2022/04/08 09:34:36;;;;;;;9.73;3.97;;;;;;;6.47;74.95;99774.66;4984921;28;20030;-79
2022/04/08 09:37:12;;;;;;;9.30;3.20;;;;;;;6.47;74.15;99773.84;4997844;28;20041;-79
2022/04/08 09:39:51;;;;;;;8.93;3.70;;;;;;;6.46;75.40;99751.59;4999959;28;20097;-79
2022/04/08 09:42:17;;;;;;;10.02;4.07;;;;;;;6.52;75.21;99764.78;4990572;28;20058;-79
2022/04/08 09:44:42;;;;;;;11.60;3.72;;;;;;;6.54;74.58;99762.13;4988801;28;20120;-79
2022/04/08 09:47:07;;;;;;;10.38;3.78;;;;;;;6.56;74.32;99755.06;4989013;28;20495;-79
2022/04/08 09:49:33;;;;;;;8.13;3.47;;;;;;;6.58;74.69;99748.03;4986306;28;20114;-78
2022/04/08 09:51:59;;;;;;;7.47;3.30;;;;;;;6.59;72.88;99760.78;4988831;28;20030;-78
2022/04/08 09:54:28;;;;;;;9.18;3.55;;;;;;;6.56;73.53;99758.47;4991188;28;20026;-78
2022/04/08 09:56:58;;;;;;;10.18;3.85;;;;;;;6.55;73.92;99756.03;4991329;28;20269;-79
2022/04/08 09:59:28;;;;;;;11.20;3.83;;;;;;;6.54;74.15;99744.91;4976646;28;20539;-79
2022/04/08 10:01:56;;;;;;;10.38;3.58;;;;;;;6.55;73.89;99751.69;4991762;28;20026;-79
2022/04/08 10:04:22;;;;;;;12.20;3.50;;;;;;;6.57;73.02;99748.97;4988297;28;20037;-78
2022/04/08 10:06:48;;;;;;;9.90;3.95;;;;;;;6.60;73.84;99733.28;4991813;28;20034;-79
2022/04/08 10:09:17;;;;;;;10.13;3.78;;;;;;;6.74;74.62;99750.97;5004236;28;20038;-79
2022/04/08 10:12:02;;;;;;;11.25;4.32;;;;;;;6.75;73.96;99742.28;4991719;28;20109;-79
2022/04/08 10:14:28;;;;;;;9.38;3.80;;;;;;;6.80;73.47;99749.66;4987605;28;20466;-79
2022/04/08 10:16:55;;;;;;;10.88;4.05;;;;;;;6.74;73.38;99735.50;4972859;28;20041;-79
2022/04/08 10:19:23;;;;;;;11.07;3.88;;;;;;;6.77;74.35;99743.00;5008615;28;20045;-78
2022/04/08 10:21:53;;;;;;;10.05;3.55;;;;;;;6.79;74.06;99748.84;4999212;28;20378;-79
2022/04/08 10:24:27;;;;;;;9.50;3.63;;;;;;;6.82;73.50;99748.56;4991570;28;20038;-80
2022/04/08 10:27:22;;;;;;;8.57;3.95;;;;;;;6.78;73.94;99747.22;4996165;28;20029;-79
2022/04/08 10:29:55;;;;;;;9.25;4.40;;;;;;;6.84;74.00;99746.69;4949008;28;20367;-79
2022/04/08 10:32:21;;;;;;;9.68;4.03;;;;;;;6.76;72.88;99749.06;4996069;28;20034;-79
2022/04/08 10:34:46;;;;;;;11.65;4.20;;;;;;;6.80;73.33;99744.50;4997729;28;20034;-79
2022/04/08 10:37:16;;;;;;;12.25;4.45;;;;;;;6.90;73.01;99761.66;4995692;28;20134;-79
2022/04/08 10:39:42;;;;;;;10.55;4.13;;;;;;;6.87;74.19;99745.63;4977032;28;20025;-79
2022/04/08 10:42:20;;;;;;;8.93;4.53;;;;;;;6.97;74.78;99753.41;4996034;28;20080;-79
2022/04/08 10:44:45;;;;;;;11.80;4.25;;;;;;;6.95;74.04;99737.25;4993720;28;20034;-79
2022/04/08 10:47:18;;;;;;;9.55;4.13;;;;;;;6.99;73.18;99733.47;4995078;28;20088;-79
2022/04/08 10:49:54;;;;;;;12.57;4.63;;;;;;;7.04;72.58;99741.63;4979821;28;20026;-79
2022/04/08 10:52:28;;;;;;;10.65;4.10;;;;;;;7.03;72.04;99752.88;5006390;28;20034;-79
2022/04/08 10:55:05;;;;;;;8.95;3.88;;;;;;;7.04;72.58;99751.94;4989664;28;20550;-79
2022/04/08 10:57:38;;;;;;;9.65;3.60;;;;;;;6.99;71.87;99748.91;4990588;28;20423;-79
2022/04/08 11:00:20;;;;;;;12.43;4.20;;;;;;;6.98;72.30;99747.28;4990117;28;20018;-79
2022/04/08 11:02:46;;;;;;;11.13;4.13;;;;;;;6.93;71.35;99739.94;5004607;28;20041;-79
2022/04/08 11:05:14;;;;;;;9.88;4.40;;;;;;;7.02;70.87;99759.00;5007163;28;20087;-79
2022/04/08 11:07:44;;;;;;;10.48;4.50;;;;;;;7.00;72.31;99750.59;4992885;28;20033;-79
2022/04/08 11:10:15;;;;;;;9.90;4.32;;;;;;;7.03;70.43;99755.47;4996788;28;20030;-79
2022/04/08 11:12:51;;;;;;;8.85;4.30;;;;;;;7.04;71.29;99741.63;4995677;28;20075;-79
2022/04/08 11:15:19;;;;;;;10.65;4.28;;;;;;;7.03;70.64;99732.25;4988992;28;20121;-79
2022/04/08 11:17:48;;;;;;;9.77;3.92;;;;;;;7.18;71.11;99743.88;4989342;28;20035;-79
2022/04/08 11:20:16;;;;;;;9.13;4.05;;;;;;;7.16;70.17;99725.13;4989922;28;20018;-79
2022/04/08 11:22:43;;;;;;;8.85;4.07;;;;;;;7.17;70.06;99716.47;4989569;28;20023;-79
2022/04/08 11:25:09;;;;;;;10.45;4.28;;;;;;;7.19;70.55;99709.41;5006952;28;20025;-79
2022/04/08 11:27:35;;;;;;;11.25;4.70;;;;;;;7.27;70.60;99722.44;5008666;28;20100;-79
2022/04/08 11:30:06;;;;;;;7.60;3.80;;;;;;;7.28;70.14;99724.06;4989227;28;20045;-79
2022/04/08 11:32:31;;;;;;;8.98;3.72;;;;;;;7.30;69.85;99709.28;4972204;28;20518;-79
2022/04/08 11:34:56;;;;;;;11.40;4.20;;;;;;;7.36;70.52;99711.34;4988401;28;20030;-79